createdAt,value
2022-07-29T00:01:01.903Z,1.00
2022-07-29T00:03:28.467Z,1.00
2022-07-29T00:05:54.893Z,1.20
2022-07-29T00:08:21.347Z,1.30
2022-07-29T00:10:47.991Z,1.13
2022-07-29T00:13:14.406Z,1.27
2022-07-29T00:15:40.867Z,1.40
2022-07-29T00:18:07.582Z,1.15
2022-07-29T00:20:33.958Z,1.10
2022-07-29T00:23:00.361Z,1.30
2022-07-29T00:25:26.758Z,0.98
2022-07-29T00:27:53.170Z,1.20
2022-07-29T00:30:19.571Z,1.10
2022-07-29T00:32:46.449Z,1.10
2022-07-29T00:35:31.477Z,1.50
2022-07-29T00:38:00.354Z,1.45
2022-07-29T00:40:28.621Z,1.02
2022-07-29T00:42:55.004Z,1.33
2022-07-29T00:45:22.875Z,1.00
2022-07-29T00:47:49.325Z,1.00
2022-07-29T00:50:15.938Z,1.48
2022-07-29T00:52:43.500Z,1.08
2022-07-29T00:55:13.116Z,1.10
2022-07-29T00:57:41.002Z,1.40
2022-07-29T01:00:10.541Z,0.90
2022-07-29T01:02:36.966Z,1.60
2022-07-29T01:05:05.950Z,1.55
2022-07-29T01:07:37.810Z,1.40
2022-07-29T01:10:05.715Z,1.38
2022-07-29T01:12:34.340Z,1.50
2022-07-29T01:15:03.087Z,1.40
2022-07-29T01:17:32.371Z,1.52
2022-07-29T01:20:31.334Z,1.40
2022-07-29T01:23:07.036Z,1.63
2022-07-29T01:26:01.308Z,1.70
2022-07-29T01:28:47.790Z,1.35
2022-07-29T01:31:25.251Z,1.80
2022-07-29T01:34:01.282Z,1.25
2022-07-29T01:37:03.489Z,1.70
2022-07-29T01:39:33.792Z,1.58
2022-07-29T01:42:30.417Z,2.00
2022-07-29T01:45:15.317Z,2.10
2022-07-29T01:47:47.555Z,1.90
2022-07-29T01:50:18.231Z,2.10
2022-07-29T01:52:50.610Z,2.17
2022-07-29T01:55:20.540Z,1.88
2022-07-29T01:57:49.143Z,1.98
2022-07-29T02:00:16.966Z,1.67
2022-07-29T02:02:46.652Z,1.63
2022-07-29T02:05:16.716Z,1.80
2022-07-29T02:07:45.399Z,1.80
2022-07-29T02:10:14.223Z,1.70
2022-07-29T02:12:43.421Z,1.75
2022-07-29T02:15:18.011Z,1.70
2022-07-29T02:17:56.219Z,1.77
2022-07-29T02:20:25.968Z,1.70
2022-07-29T02:22:54.776Z,1.80
2022-07-29T02:25:23.152Z,1.67
2022-07-29T02:27:53.052Z,1.88
2022-07-29T02:30:22.598Z,1.70
2022-07-29T02:32:50.407Z,1.80
2022-07-29T02:35:17.804Z,1.90
2022-07-29T02:37:46.292Z,1.93
2022-07-29T02:40:15.422Z,2.08
2022-07-29T02:42:44.817Z,1.83
2022-07-29T02:45:11.803Z,1.98
2022-07-29T02:47:44.552Z,2.03
2022-07-29T02:50:18.748Z,2.40
2022-07-29T02:52:48.515Z,2.20
2022-07-29T02:55:26.118Z,2.22
2022-07-29T02:58:00.564Z,1.85
2022-07-29T03:00:30.358Z,1.88
2022-07-29T03:03:00.235Z,1.92
2022-07-29T03:05:27.266Z,1.92
2022-07-29T03:08:01.204Z,1.60
2022-07-29T03:10:28.927Z,2.20
2022-07-29T03:12:56.731Z,1.90
2022-07-29T03:15:24.029Z,2.30
2022-07-29T03:17:52.535Z,2.10
2022-07-29T03:20:19.176Z,2.55
2022-07-29T03:22:47.891Z,2.17
2022-07-29T03:25:16.460Z,2.33
2022-07-29T03:27:43.683Z,2.28
2022-07-29T03:30:11.507Z,2.42
2022-07-29T03:32:38.526Z,2.47
2022-07-29T03:35:07.343Z,3.00
2022-07-29T03:37:34.457Z,2.65
2022-07-29T03:40:04.053Z,2.63
2022-07-29T03:42:34.505Z,2.58
2022-07-29T03:45:04.234Z,2.40
2022-07-29T03:47:47.977Z,2.63
2022-07-29T03:50:20.212Z,2.28
2022-07-29T03:52:47.533Z,2.17
2022-07-29T03:55:14.886Z,2.70
2022-07-29T03:57:41.948Z,2.10
2022-07-29T04:00:09.979Z,2.78
2022-07-29T04:02:37.367Z,2.63
2022-07-29T04:05:04.009Z,2.20
2022-07-29T04:07:30.703Z,2.20
2022-07-29T04:09:57.136Z,2.92
2022-07-29T04:12:23.822Z,2.40
2022-07-29T04:14:51.092Z,2.75
2022-07-29T04:17:17.842Z,2.83
2022-07-29T04:19:44.236Z,2.53
2022-07-29T04:22:10.634Z,2.67
2022-07-29T04:24:37.004Z,2.70
2022-07-29T04:27:03.458Z,2.50
2022-07-29T04:29:29.818Z,2.80
2022-07-29T04:31:56.221Z,2.75
2022-07-29T04:34:22.672Z,2.15
2022-07-29T04:36:54.436Z,2.97
2022-07-29T04:39:23.068Z,2.58
2022-07-29T04:41:51.052Z,2.80
2022-07-29T04:44:19.493Z,2.47
2022-07-29T04:46:46.344Z,2.50
2022-07-29T04:49:12.932Z,2.40
2022-07-29T04:51:39.508Z,2.70
2022-07-29T04:54:07.019Z,3.13
2022-07-29T04:56:33.487Z,2.77
2022-07-29T04:58:59.830Z,2.92
2022-07-29T05:01:26.263Z,2.92
2022-07-29T05:03:55.931Z,2.78
2022-07-29T05:06:26.356Z,2.90
2022-07-29T05:08:52.716Z,3.28
2022-07-29T05:11:21.846Z,2.60
2022-07-29T05:13:49.789Z,2.25
2022-07-29T05:16:16.304Z,2.63
2022-07-29T05:18:43.116Z,3.53
2022-07-29T05:21:09.596Z,3.05
2022-07-29T05:23:35.951Z,2.63
2022-07-29T05:26:02.636Z,2.70
2022-07-29T05:28:29.156Z,2.72
2022-07-29T05:30:55.550Z,2.63
2022-07-29T05:33:35.807Z,2.85
2022-07-29T05:36:06.393Z,2.97
2022-07-29T05:38:32.876Z,2.88
2022-07-29T05:41:00.349Z,2.95
2022-07-29T05:43:30.478Z,3.10
2022-07-29T05:45:57.131Z,2.58
2022-07-29T05:48:23.972Z,2.97
2022-07-29T05:50:50.337Z,2.35
2022-07-29T05:53:18.869Z,2.50
2022-07-29T05:55:46.762Z,2.70
2022-07-29T05:58:13.342Z,2.90
2022-07-29T06:00:39.728Z,2.80
2022-07-29T06:03:06.341Z,2.60
2022-07-29T06:05:32.749Z,2.50
2022-07-29T06:07:59.165Z,2.58
2022-07-29T06:10:27.042Z,2.35
2022-07-29T06:12:53.786Z,2.55
2022-07-29T06:15:20.390Z,2.63
2022-07-29T06:18:00.524Z,2.80
2022-07-29T06:20:32.434Z,2.83
2022-07-29T06:23:00.114Z,2.33
2022-07-29T06:25:28.356Z,2.40
2022-07-29T06:27:54.887Z,2.80
2022-07-29T06:30:21.313Z,2.42
2022-07-29T06:32:48.111Z,2.50
2022-07-29T06:38:01.206Z,2.58
2022-07-29T06:40:46.421Z,2.67
2022-07-29T06:43:12.828Z,1.92
2022-07-29T06:45:42.176Z,2.85
2022-07-29T06:48:09.063Z,2.70
2022-07-29T06:50:35.538Z,3.00
2022-07-29T06:53:01.921Z,2.60
2022-07-29T06:55:28.535Z,2.60
2022-07-29T06:57:54.899Z,2.60
2022-07-29T07:00:21.428Z,2.40
2022-07-29T07:02:47.888Z,2.47
2022-07-29T07:05:14.315Z,2.47
2022-07-29T07:07:40.687Z,2.50
2022-07-29T07:10:07.444Z,2.03
2022-07-29T07:12:33.865Z,2.53
2022-07-29T07:15:00.390Z,2.40
2022-07-29T07:17:26.792Z,2.22
2022-07-29T07:19:53.153Z,2.58
2022-07-29T07:22:19.544Z,2.50
2022-07-29T07:24:45.939Z,2.10
2022-07-29T07:27:12.440Z,2.33
2022-07-29T07:29:41.987Z,2.55
2022-07-29T07:32:11.093Z,2.22
2022-07-29T07:34:38.840Z,2.38
2022-07-29T07:37:06.029Z,2.63
2022-07-29T07:39:32.583Z,2.47
2022-07-29T07:41:59.663Z,2.50
2022-07-29T07:44:26.049Z,2.45
2022-07-29T07:46:52.555Z,2.83
2022-07-29T07:49:19.607Z,2.40
2022-07-29T07:51:50.540Z,2.55
2022-07-29T07:54:18.446Z,2.53
2022-07-29T07:56:49.825Z,2.38
2022-07-29T07:59:19.309Z,2.60
2022-07-29T08:01:47.801Z,2.38
2022-07-29T08:04:27.100Z,2.30
2022-07-29T08:06:57.814Z,2.35
2022-07-29T08:09:30.305Z,2.60
2022-07-29T08:11:59.724Z,2.85
2022-07-29T08:14:26.249Z,2.90
2022-07-29T08:16:52.713Z,2.95
2022-07-29T08:19:19.476Z,2.90
2022-07-29T08:21:46.406Z,2.47
2022-07-29T08:24:31.375Z,2.47
2022-07-29T08:26:57.771Z,2.75
2022-07-29T08:29:24.127Z,2.50
2022-07-29T08:31:50.810Z,2.47
2022-07-29T08:34:17.726Z,2.20
2022-07-29T08:36:44.157Z,2.45
2022-07-29T08:39:13.516Z,2.38
2022-07-29T08:41:40.044Z,2.35
2022-07-29T08:44:06.432Z,2.70
2022-07-29T08:46:32.925Z,2.70
2022-07-29T08:48:59.429Z,2.60
2022-07-29T08:51:26.414Z,2.63
2022-07-29T08:53:53.848Z,2.85
2022-07-29T08:56:21.546Z,3.00
2022-07-29T08:58:52.343Z,3.10
2022-07-29T09:01:23.571Z,3.17
2022-07-29T09:04:05.306Z,2.80
2022-07-29T09:06:35.465Z,3.10
2022-07-29T09:09:02.255Z,2.28
2022-07-29T09:11:29.410Z,3.38
2022-07-29T09:13:55.907Z,2.58
2022-07-29T09:16:43.864Z,3.20
2022-07-29T09:19:27.443Z,2.80
2022-07-29T09:22:03.762Z,2.60
2022-07-29T09:24:47.777Z,2.92
2022-07-29T09:27:26.860Z,2.63
2022-07-29T09:29:58.420Z,3.35
2022-07-29T09:32:24.843Z,3.15
2022-07-29T09:34:53.645Z,2.80
2022-07-29T09:37:30.041Z,2.97
2022-07-29T09:39:56.433Z,3.13
2022-07-29T09:42:31.102Z,3.30
2022-07-29T09:44:57.586Z,3.60
2022-07-29T09:47:42.449Z,3.10
2022-07-29T09:50:09.130Z,2.92
2022-07-29T09:52:46.274Z,3.30
2022-07-29T09:55:13.550Z,3.10
2022-07-29T09:57:45.368Z,2.80
2022-07-29T10:00:15.735Z,3.30
2022-07-29T10:02:47.042Z,3.00
2022-07-29T10:05:36.841Z,3.25
2022-07-29T10:08:03.962Z,3.13
2022-07-29T10:10:32.557Z,3.15
2022-07-29T10:13:15.214Z,2.58
2022-07-29T10:15:46.336Z,3.28
2022-07-29T10:18:14.456Z,3.22
2022-07-29T10:20:45.353Z,3.17
2022-07-29T10:23:18.096Z,3.25
2022-07-29T10:25:47.078Z,2.92
2022-07-29T10:28:17.312Z,2.63
2022-07-29T10:30:45.565Z,2.97
2022-07-29T10:33:15.629Z,3.13
2022-07-29T10:35:55.310Z,3.35
2022-07-29T10:38:47.211Z,3.58
2022-07-29T10:41:47.990Z,3.10
2022-07-29T10:44:23.033Z,3.25
2022-07-29T10:46:51.561Z,3.42
2022-07-29T10:49:25.161Z,2.47
2022-07-29T10:52:10.302Z,3.13
2022-07-29T10:54:42.537Z,3.08
2022-07-29T10:57:13.859Z,3.05
2022-07-29T10:59:41.826Z,2.88
2022-07-29T11:02:42.131Z,2.88
2022-07-29T11:05:20.257Z,3.28
2022-07-29T11:08:20.468Z,3.08
2022-07-29T11:10:48.200Z,3.10
2022-07-29T11:13:44.050Z,3.85
2022-07-29T11:16:10.503Z,3.28
2022-07-29T11:19:29.860Z,3.33
2022-07-29T11:22:05.596Z,3.20
2022-07-29T11:24:34.813Z,3.25
2022-07-29T11:27:13.192Z,3.25
2022-07-29T11:29:51.983Z,3.35
2022-07-29T11:32:23.192Z,3.05
2022-07-29T11:38:27.872Z,2.80
2022-07-29T11:41:23.661Z,4.07
2022-07-29T11:43:52.211Z,2.90
2022-07-29T11:46:50.806Z,2.85
2022-07-29T11:49:32.312Z,3.47
2022-07-29T11:52:02.316Z,2.90
2022-07-29T11:54:38.846Z,2.95
2022-07-29T11:57:22.287Z,2.67
2022-07-29T11:59:49.083Z,3.10
2022-07-29T12:02:37.734Z,3.42
2022-07-29T12:07:45.479Z,3.08
2022-07-29T12:10:20.124Z,2.63
2022-07-29T12:12:56.503Z,3.20
2022-07-29T12:15:24.902Z,2.78
2022-07-29T12:18:14.102Z,3.20
2022-07-29T12:20:40.833Z,2.63
2022-07-29T12:23:09.817Z,2.95
2022-07-29T12:25:38.012Z,2.80
2022-07-29T12:28:07.012Z,2.40
2022-07-29T12:30:39.875Z,2.40
2022-07-29T12:33:16.963Z,2.90
2022-07-29T12:36:06.223Z,2.25
2022-07-29T12:38:35.809Z,2.10
2022-07-29T12:41:04.470Z,2.17
2022-07-29T12:43:31.739Z,2.05
2022-07-29T12:45:58.823Z,1.90
2022-07-29T12:48:35.380Z,2.00
2022-07-29T12:51:03.933Z,1.52
2022-07-29T12:53:30.716Z,2.30
2022-07-29T12:56:07.936Z,1.90
2022-07-29T12:58:42.880Z,1.75
2022-07-29T13:01:20.898Z,1.67
2022-07-29T13:03:59.799Z,1.98
2022-07-29T13:06:45.983Z,1.50
2022-07-29T13:09:18.716Z,1.55
2022-07-29T13:14:35.787Z,2.08
2022-07-29T13:17:05.087Z,1.98
2022-07-29T13:19:42.299Z,1.60
2022-07-29T13:22:16.070Z,1.73
2022-07-29T13:24:56.178Z,1.55
2022-07-29T13:27:25.348Z,2.15
2022-07-29T13:29:53.344Z,1.80
2022-07-29T13:32:28.210Z,2.08
2022-07-29T13:34:56.394Z,2.10
2022-07-29T13:39:53.117Z,2.00
2022-07-29T13:42:20.062Z,1.80
2022-07-29T13:44:46.636Z,1.73
2022-07-29T13:47:13.662Z,2.22
2022-07-29T13:49:40.091Z,2.13
2022-07-29T13:52:08.321Z,2.45
2022-07-29T13:54:42.053Z,2.00
2022-07-29T13:57:09.294Z,2.05
2022-07-29T13:59:35.628Z,2.30
2022-07-29T14:02:01.977Z,1.90
2022-07-29T14:04:28.426Z,2.25
2022-07-29T14:06:55.129Z,1.95
2022-07-29T14:09:21.589Z,1.97
2022-07-29T14:11:50.558Z,2.03
2022-07-29T14:14:16.947Z,2.10
2022-07-29T14:16:47.739Z,2.15
2022-07-29T14:19:16.917Z,1.98
2022-07-29T14:21:43.370Z,1.92
2022-07-29T14:24:21.484Z,2.00
2022-07-29T14:26:48.478Z,1.92
2022-07-29T14:29:14.907Z,1.88
2022-07-29T14:31:41.401Z,2.15
2022-07-29T14:34:07.850Z,2.03
2022-07-29T14:36:34.207Z,2.03
2022-07-29T14:39:00.575Z,2.25
2022-07-29T14:41:29.088Z,2.20
2022-07-29T14:43:55.499Z,2.20
2022-07-29T14:46:21.894Z,2.35
2022-07-29T14:48:48.394Z,2.25
2022-07-29T14:51:14.876Z,2.30
2022-07-29T14:53:41.250Z,2.13
2022-07-29T14:56:34.292Z,2.08
2022-07-29T14:58:54.001Z,2.33
2022-07-29T15:01:20.641Z,2.28
2022-07-29T15:03:47.036Z,2.57
2022-07-29T15:06:13.440Z,2.20
2022-07-29T15:08:39.881Z,2.17
2022-07-29T15:11:06.322Z,1.98
2022-07-29T15:13:33.580Z,2.08
2022-07-29T15:16:03.858Z,1.98
2022-07-29T15:18:30.275Z,2.20
2022-07-29T15:20:56.659Z,2.10
2022-07-29T15:23:23.141Z,2.10
2022-07-29T15:25:49.516Z,2.20
2022-07-29T15:28:15.878Z,2.30
2022-07-29T15:30:42.289Z,2.10
2022-07-29T15:33:12.427Z,2.45
2022-07-29T15:35:40.444Z,2.28
2022-07-29T15:38:08.110Z,2.33
2022-07-29T15:40:35.180Z,2.20
2022-07-29T15:43:06.521Z,1.90
2022-07-29T15:45:42.034Z,2.13
2022-07-29T15:48:09.894Z,2.00
2022-07-29T15:50:41.220Z,2.13
2022-07-29T15:53:07.593Z,1.90
2022-07-29T15:55:33.953Z,2.00
2022-07-29T15:58:00.998Z,1.80
2022-07-29T16:00:27.854Z,1.63
2022-07-29T16:02:54.272Z,1.83
2022-07-29T16:05:20.688Z,2.15
2022-07-29T16:07:47.083Z,1.90
2022-07-29T16:10:13.541Z,1.90
2022-07-29T16:12:40.224Z,1.90
2022-07-29T16:15:10.245Z,1.95
2022-07-29T16:17:38.184Z,2.03
2022-07-29T16:20:06.129Z,1.95
2022-07-29T16:22:32.479Z,2.17
2022-07-29T16:24:58.883Z,1.70
2022-07-29T16:27:35.545Z,1.90
2022-07-29T16:30:06.843Z,1.85
2022-07-29T16:32:33.799Z,1.80
2022-07-29T16:35:02.211Z,2.00
2022-07-29T16:37:33.387Z,2.17
2022-07-29T16:39:59.791Z,2.15
2022-07-29T16:42:45.478Z,1.90
2022-07-29T16:45:12.627Z,2.08
2022-07-29T16:47:38.986Z,1.80
2022-07-29T16:50:06.091Z,2.28
2022-07-29T16:52:32.538Z,1.80
2022-07-29T16:54:58.903Z,2.30
2022-07-29T16:57:25.278Z,2.20
2022-07-29T16:59:52.086Z,2.33
2022-07-29T17:02:18.652Z,2.53
2022-07-29T17:04:45.107Z,2.40
2022-07-29T17:07:11.793Z,2.35
2022-07-29T17:09:38.206Z,2.00
2022-07-29T17:12:05.164Z,2.80
2022-07-29T17:14:31.747Z,2.47
2022-07-29T17:17:01.991Z,2.80
2022-07-29T17:19:31.279Z,2.90
2022-07-29T17:22:06.374Z,2.95
2022-07-29T17:24:37.016Z,2.40
2022-07-29T17:29:31.178Z,3.20
2022-07-29T17:31:59.405Z,2.75
2022-07-29T17:34:26.452Z,3.00
2022-07-29T17:36:53.051Z,3.30
2022-07-29T17:39:19.709Z,3.75
2022-07-29T17:41:46.793Z,3.30
2022-07-29T17:44:13.454Z,3.03
2022-07-29T17:46:40.514Z,3.20
2022-07-29T17:49:07.140Z,3.40
2022-07-29T17:51:33.589Z,3.47
2022-07-29T17:54:00.313Z,3.35
2022-07-29T17:56:26.675Z,3.33
2022-07-29T17:58:53.294Z,3.47
2022-07-29T18:01:20.226Z,3.10
2022-07-29T18:03:47.070Z,3.30
2022-07-29T18:06:13.630Z,2.90
2022-07-29T18:08:40.428Z,3.20
2022-07-29T18:11:07.004Z,3.55
2022-07-29T18:13:33.666Z,2.97
2022-07-29T18:16:00.836Z,3.55
2022-07-29T18:18:27.689Z,3.00
2022-07-29T18:20:54.169Z,3.10
2022-07-29T18:23:20.594Z,3.10
2022-07-29T18:25:47.125Z,2.70
2022-07-29T18:28:13.552Z,2.90
2022-07-29T18:30:39.920Z,2.83
2022-07-29T18:33:24.261Z,3.03
2022-07-29T18:35:52.846Z,2.90
2022-07-29T18:38:37.263Z,3.05
2022-07-29T18:41:03.691Z,2.80
2022-07-29T18:43:30.149Z,3.13
2022-07-29T18:45:56.613Z,2.90
2022-07-29T18:48:24.023Z,3.08
2022-07-29T18:50:50.546Z,2.60
2022-07-29T18:53:17.382Z,2.85
2022-07-29T18:55:43.794Z,2.70
2022-07-29T18:58:10.160Z,2.20
2022-07-29T19:00:36.541Z,2.40
2022-07-29T19:03:03.520Z,2.22
2022-07-29T19:05:30.270Z,2.30
2022-07-29T19:07:56.664Z,2.35
2022-07-29T19:10:23.066Z,2.20
2022-07-29T19:12:49.685Z,2.42
2022-07-29T19:15:19.997Z,2.13
2022-07-29T19:17:47.907Z,2.13
2022-07-29T19:20:14.553Z,2.25
2022-07-29T19:22:40.912Z,3.00
2022-07-29T19:25:07.755Z,2.17
2022-07-29T19:27:34.147Z,2.45
2022-07-29T19:30:00.503Z,2.05
2022-07-29T19:32:26.936Z,2.13
2022-07-29T19:35:11.993Z,2.10
2022-07-29T19:37:38.408Z,2.38
2022-07-29T19:40:06.141Z,1.95
2022-07-29T19:42:32.537Z,2.17
2022-07-29T19:44:58.943Z,2.70
2022-07-29T19:47:25.313Z,2.65
2022-07-29T19:49:51.759Z,2.50
2022-07-29T19:52:18.239Z,2.50
2022-07-29T19:54:44.619Z,2.30
2022-07-29T19:57:10.977Z,2.40
2022-07-29T19:59:37.719Z,2.05
2022-07-29T20:02:04.221Z,2.55
2022-07-29T20:04:30.675Z,2.13
2022-07-29T20:07:01.369Z,2.15
2022-07-29T20:09:28.295Z,2.05
2022-07-29T20:11:54.736Z,2.40
2022-07-29T20:14:21.539Z,2.17
2022-07-29T20:16:48.070Z,2.55
2022-07-29T20:19:16.811Z,2.30
2022-07-29T20:21:44.296Z,2.15
2022-07-29T20:24:11.131Z,2.42
2022-07-29T20:29:05.347Z,2.17
2022-07-29T20:31:32.461Z,1.98
2022-07-29T20:33:59.935Z,2.33
2022-07-29T20:36:26.721Z,2.53
2022-07-29T20:38:53.127Z,2.15
2022-07-29T20:41:19.555Z,1.90
2022-07-29T20:43:46.423Z,2.28
2022-07-29T20:46:13.140Z,2.60
2022-07-29T20:48:40.693Z,2.53
2022-07-29T20:51:07.387Z,2.40
2022-07-29T20:53:33.777Z,2.08
2022-07-29T20:56:00.283Z,2.92
2022-07-29T20:58:26.891Z,2.53
2022-07-29T21:00:53.278Z,2.97
2022-07-29T21:03:19.663Z,2.55
2022-07-29T21:05:46.115Z,2.65
2022-07-29T21:08:12.604Z,2.92
2022-07-29T21:10:39.263Z,2.78
2022-07-29T21:13:05.966Z,2.58
2022-07-29T21:15:32.455Z,3.03
2022-07-29T21:18:03.755Z,2.42
2022-07-29T21:20:30.338Z,2.70
2022-07-29T21:22:56.783Z,2.83
2022-07-29T21:25:24.216Z,2.65
2022-07-29T21:28:10.158Z,2.78
2022-07-29T21:30:36.543Z,3.50
2022-07-29T21:33:03.905Z,2.85
2022-07-29T21:36:01.519Z,2.87
2022-07-29T21:38:18.326Z,2.97
2022-07-29T21:40:48.828Z,2.63
2022-07-29T21:43:15.737Z,2.83
2022-07-29T21:45:43.696Z,3.05
2022-07-29T21:48:10.414Z,3.10
2022-07-29T21:50:36.772Z,3.10
2022-07-29T21:53:03.270Z,3.20
2022-07-29T21:55:32.461Z,3.03
2022-07-29T22:00:25.748Z,3.20
2022-07-29T22:02:53.514Z,3.22
2022-07-29T22:05:21.147Z,3.65
2022-07-29T22:07:56.113Z,3.60
2022-07-29T22:10:25.800Z,3.45
2022-07-29T22:12:54.452Z,3.83
2022-07-29T22:15:21.243Z,3.80
2022-07-29T22:17:47.744Z,4.28
2022-07-29T22:20:14.237Z,4.20
2022-07-29T22:22:40.838Z,4.25
2022-07-29T22:25:08.320Z,3.78
2022-07-29T22:27:35.393Z,3.90
2022-07-29T22:30:01.755Z,3.75
2022-07-29T22:32:28.370Z,3.55
2022-07-29T22:34:54.727Z,4.00
2022-07-29T22:37:21.081Z,4.55
2022-07-29T22:39:47.688Z,4.38
2022-07-29T22:42:14.207Z,4.32
2022-07-29T22:44:40.608Z,4.78
2022-07-29T22:47:07.120Z,4.40
2022-07-29T22:49:33.568Z,4.50
2022-07-29T22:52:00.327Z,4.40
2022-07-29T22:54:27.007Z,4.28
2022-07-29T22:56:53.503Z,3.90
2022-07-29T22:59:19.906Z,4.95
2022-07-29T23:01:46.448Z,4.95
2022-07-29T23:04:12.890Z,4.32
2022-07-29T23:06:39.468Z,4.50
2022-07-29T23:09:06.266Z,4.55
2022-07-29T23:11:32.611Z,4.97
2022-07-29T23:13:58.961Z,4.78
2022-07-29T23:16:26.739Z,4.45
2022-07-29T23:18:53.922Z,5.63
2022-07-29T23:21:20.887Z,8.02
2022-07-29T23:23:48.489Z,7.28
2022-07-29T23:26:16.776Z,5.10
2022-07-29T23:31:10.738Z,4.97
2022-07-29T23:33:37.159Z,5.15
2022-07-29T23:36:03.810Z,5.07
2022-07-29T23:38:30.441Z,5.60
2022-07-29T23:40:58.506Z,5.65
2022-07-29T23:43:25.075Z,6.13
2022-07-29T23:45:51.505Z,5.28
2022-07-29T23:48:20.737Z,5.40
2022-07-29T23:50:47.136Z,5.70
2022-07-29T23:53:13.561Z,5.53
2022-07-29T23:55:39.944Z,6.55
2022-07-29T23:58:06.318Z,7.60
